Time;durP1;ratioP1;P1;durP2;ratioP2;P2;SDS_P1;SDS_P2;PMS_P1;PMS_P2;Temp;Humidity;BMP_temperature;BMP_pressure;BME280_temperature;BME280_humidity;BME280_pressure;Samples;Min_cycle;Max_cycle;Signal;HPM_P1;HPM_P2
2023/10/21 00:00:56;;;;;;;51.85;21.00;;;11.30;99.90;;;;;;7378832;19;20027;-62
2023/10/21 00:03:22;;;;;;;39.70;17.88;;;11.20;99.90;;;;;;7380417;19;20022;-61
2023/10/21 00:05:50;;;;;;;43.20;19.38;;;11.10;99.90;;;;;;7380548;19;20011;-62
2023/10/21 00:08:16;;;;;;;36.15;17.20;;;11.00;99.90;;;;;;7380259;19;20079;-62
2023/10/21 00:10:43;;;;;;;41.45;18.42;;;11.00;99.90;;;;;;7379565;19;20018;-62
2023/10/21 00:13:10;;;;;;;32.60;16.90;;;10.90;99.90;;;;;;7379427;19;20593;-62
2023/10/21 00:15:37;;;;;;;31.08;16.67;;;11.00;99.90;;;;;;7378877;19;20022;-62
2023/10/21 00:18:04;;;;;;;45.95;18.77;;;11.00;99.90;;;;;;7378717;19;20029;-62
2023/10/21 00:20:30;;;;;;;55.75;20.00;;;11.00;99.90;;;;;;7376444;19;20091;-62
2023/10/21 00:22:56;;;;;;;31.20;17.23;;;10.90;99.90;;;;;;7378664;19;20019;-62
2023/10/21 00:25:23;;;;;;;38.40;18.70;;;11.00;99.90;;;;;;7381826;19;20038;-62
2023/10/21 00:27:51;;;;;;;37.70;18.67;;;11.00;99.90;;;;;;7377731;19;20588;-62
2023/10/21 00:30:17;;;;;;;39.33;19.27;;;10.90;99.90;;;;;;7378259;19;20645;-68
2023/10/21 00:32:43;;;;;;;41.97;20.13;;;10.90;99.90;;;;;;7376550;19;20022;-62
2023/10/21 00:35:10;;;;;;;53.53;23.10;;;10.90;99.90;;;;;;7380374;19;20015;-61
2023/10/21 00:37:36;;;;;;;55.38;23.38;;;10.80;99.90;;;;;;7378009;19;20366;-61
2023/10/21 00:40:03;;;;;;;65.57;25.17;;;10.80;99.90;;;;;;7379516;19;20014;-61
2023/10/21 00:42:29;;;;;;;52.10;24.13;;;10.70;99.90;;;;;;7378920;19;20021;-62
2023/10/21 00:44:56;;;;;;;62.65;26.67;;;10.80;99.90;;;;;;7382096;19;20070;-63
2023/10/21 00:47:23;;;;;;;60.63;25.77;;;10.80;99.90;;;;;;7381295;19;20033;-62
2023/10/21 00:49:49;;;;;;;59.70;28.42;;;10.60;99.90;;;;;;7376946;19;20022;-62
2023/10/21 00:52:16;;;;;;;61.58;27.33;;;10.70;99.90;;;;;;7376689;19;20014;-62
2023/10/21 00:54:42;;;;;;;85.43;31.10;;;10.60;99.90;;;;;;7377368;19;20050;-63
2023/10/21 00:57:09;;;;;;;72.32;30.00;;;10.60;99.90;;;;;;7378224;19;20383;-62
2023/10/21 00:59:36;;;;;;;84.47;31.48;;;10.60;99.90;;;;;;7374044;19;20741;-62
2023/10/21 01:02:02;;;;;;;93.25;34.63;;;10.50;99.90;;;;;;7375604;19;20043;-62
2023/10/21 01:04:28;;;;;;;98.65;34.00;;;10.50;99.90;;;;;;7375265;19;20768;-67
2023/10/21 01:06:55;;;;;;;73.43;31.27;;;10.40;99.90;;;;;;7375197;19;20022;-67
2023/10/21 01:09:22;;;;;;;92.25;33.72;;;10.40;99.90;;;;;;7374970;19;20035;-67
2023/10/21 01:11:48;;;;;;;108.25;36.50;;;10.40;99.90;;;;;;7374019;19;20026;-67
2023/10/21 01:14:16;;;;;;;90.25;33.88;;;10.30;99.90;;;;;;7371214;19;20018;-62
2023/10/21 01:16:43;;;;;;;113.80;37.47;;;10.30;99.90;;;;;;7374898;19;21084;-62
2023/10/21 01:19:09;;;;;;;128.82;39.53;;;10.20;99.90;;;;;;7378038;19;20414;-62
2023/10/21 01:21:36;;;;;;;92.07;35.67;;;10.30;99.90;;;;;;7375471;19;20374;-67
2023/10/21 01:24:02;;;;;;;83.63;32.25;;;10.30;99.90;;;;;;7373335;19;20043;-67
2023/10/21 01:26:28;;;;;;;72.40;30.42;;;10.20;99.90;;;;;;7377310;19;20019;-67
2023/10/21 01:28:54;;;;;;;122.47;37.88;;;10.20;99.90;;;;;;7373142;19;20087;-62
2023/10/21 01:31:22;;;;;;;81.10;33.33;;;10.20;99.90;;;;;;7377534;19;20033;-62
2023/10/21 01:33:49;;;;;;;83.00;33.13;;;10.10;99.90;;;;;;7374426;19;20011;-62
2023/10/21 01:36:17;;;;;;;96.50;34.10;;;10.20;99.90;;;;;;7378941;19;20068;-61
2023/10/21 01:38:43;;;;;;;84.63;34.28;;;10.00;99.90;;;;;;7373444;19;20078;-62
2023/10/21 01:41:10;;;;;;;75.80;30.73;;;10.00;99.90;;;;;;7377569;19;20058;-62
2023/10/21 01:43:36;;;;;;;66.35;29.00;;;10.10;99.90;;;;;;7375176;19;20519;-62
2023/10/21 01:46:23;;;;;;;69.30;30.55;;;10.00;99.90;;;;;;7377741;19;20026;-66
2023/10/21 01:48:51;;;;;;;86.65;32.33;;;10.10;99.90;;;;;;7372686;19;20744;-67
2023/10/21 01:51:18;;;;;;;105.35;36.17;;;10.10;99.90;;;;;;7374400;19;20022;-67
2023/10/21 01:53:48;;;;;;;77.68;30.80;;;10.10;99.90;;;;;;7374680;19;20041;-62
2023/10/21 01:56:14;;;;;;;81.30;32.47;;;10.00;99.90;;;;;;7375278;19;20019;-67
2023/10/21 01:58:40;;;;;;;66.63;29.48;;;10.00;99.90;;;;;;7374439;19;20606;-67
2023/10/21 02:01:11;;;;;;;71.63;31.08;;;10.00;99.90;;;;;;7374217;19;20021;-66
2023/10/21 02:03:43;;;;;;;70.30;31.25;;;10.00;99.90;;;;;;7373941;19;20030;-67
2023/10/21 02:06:10;;;;;;;84.03;33.10;;;9.90;99.90;;;;;;7373370;19;20371;-66
2023/10/21 02:08:36;;;;;;;87.30;33.25;;;10.00;99.90;;;;;;7372928;19;20015;-66
2023/10/21 02:11:02;;;;;;;132.18;39.85;;;10.00;99.90;;;;;;7371387;19;20018;-66
2023/10/21 02:13:28;;;;;;;85.28;33.55;;;9.90;99.90;;;;;;7371145;19;20019;-67
2023/10/21 02:15:55;;;;;;;135.68;38.97;;;9.90;99.90;;;;;;7373316;19;20102;-67
2023/10/21 02:18:21;;;;;;;114.28;37.00;;;9.90;99.90;;;;;;7376068;19;20804;-66
2023/10/21 02:20:47;;;;;;;133.55;38.83;;;9.80;99.90;;;;;;7373161;19;20022;-67
2023/10/21 02:23:14;;;;;;;112.50;36.75;;;9.80;99.90;;;;;;7371558;19;20764;-66
2023/10/21 02:25:40;;;;;;;109.75;35.88;;;9.70;99.90;;;;;;7374338;19;20662;-66
2023/10/21 02:28:06;;;;;;;104.00;35.83;;;9.80;99.90;;;;;;7374104;19;20018;-62
2023/10/21 02:30:35;;;;;;;85.93;32.03;;;9.80;99.90;;;;;;7372027;19;20014;-61
2023/10/21 02:33:03;;;;;;;85.60;33.17;;;9.80;99.90;;;;;;7374334;19;20423;-62
2023/10/21 02:35:32;;;;;;;80.55;31.35;;;9.80;99.90;;;;;;7374719;19;20022;-62
2023/10/21 02:37:58;;;;;;;93.25;33.92;;;9.80;99.90;;;;;;7377367;19;20032;-62
2023/10/21 02:40:25;;;;;;;73.53;29.23;;;9.80;99.90;;;;;;7372226;19;20498;-61
2023/10/21 02:42:51;;;;;;;73.60;30.58;;;9.80;99.90;;;;;;7371323;19;20022;-67
2023/10/21 02:45:17;;;;;;;78.50;32.00;;;9.80;99.90;;;;;;7373484;19;20015;-67
2023/10/21 02:47:44;;;;;;;73.32;30.67;;;9.80;99.90;;;;;;7370655;19;20044;-67
2023/10/21 02:50:12;;;;;;;70.57;31.02;;;9.80;99.90;;;;;;7371256;19;20019;-67
2023/10/21 02:52:38;;;;;;;76.70;32.00;;;9.80;99.90;;;;;;7369201;19;20019;-66
2023/10/21 02:55:05;;;;;;;74.35;31.48;;;9.80;99.90;;;;;;7372823;19;20026;-66
2023/10/21 02:57:32;;;;;;;95.03;34.88;;;9.80;99.90;;;;;;7372112;19;20466;-67
2023/10/21 02:59:58;;;;;;;104.75;37.78;;;9.90;99.90;;;;;;7364216;19;20667;-66
2023/10/21 03:02:24;;;;;;;79.22;33.25;;;9.90;99.90;;;;;;7371881;19;20572;-66
2023/10/21 03:04:50;;;;;;;107.15;37.42;;;9.80;99.90;;;;;;7367713;19;20018;-66
2023/10/21 03:07:20;;;;;;;85.50;34.78;;;9.80;99.90;;;;;;7372299;19;20019;-66
2023/10/21 03:09:46;;;;;;;110.28;38.80;;;9.90;99.90;;;;;;7370092;19;20858;-62
2023/10/21 03:12:12;;;;;;;134.98;40.72;;;9.80;99.90;;;;;;7369124;19;20023;-60
2023/10/21 03:14:39;;;;;;;110.97;39.17;;;9.90;99.90;;;;;;7369021;19;20019;-61
2023/10/21 03:17:06;;;;;;;91.45;38.85;;;9.80;99.90;;;;;;7373567;19;20019;-62
2023/10/21 03:19:32;;;;;;;98.07;37.55;;;9.80;99.90;;;;;;7372131;19;20019;-60
2023/10/21 03:21:58;;;;;;;90.95;38.03;;;9.90;99.90;;;;;;7371794;19;20041;-65
2023/10/21 03:24:25;;;;;;;127.00;43.63;;;9.90;99.90;;;;;;7376008;19;20019;-60
2023/10/21 03:26:51;;;;;;;93.60;37.67;;;9.80;99.90;;;;;;7379506;19;20487;-61
2023/10/21 03:29:17;;;;;;;104.80;40.03;;;9.80;99.90;;;;;;7379591;19;20023;-65
2023/10/21 03:31:44;;;;;;;119.40;44.45;;;9.90;99.90;;;;;;7377399;19;20014;-66
2023/10/21 03:34:11;;;;;;;117.60;42.47;;;9.80;99.90;;;;;;7376527;19;20361;-66
2023/10/21 03:36:37;;;;;;;140.77;45.17;;;9.90;99.90;;;;;;7378624;19;20052;-66
2023/10/21 03:39:03;;;;;;;75.30;36.40;;;9.80;99.90;;;;;;7378033;19;20027;-67
2023/10/21 03:41:30;;;;;;;95.68;39.55;;;9.80;99.90;;;;;;7377788;19;20019;-67
2023/10/21 03:43:57;;;;;;;88.40;36.55;;;9.80;99.90;;;;;;7379165;19;20022;-62
2023/10/21 03:46:25;;;;;;;103.82;41.53;;;9.80;99.90;;;;;;7378783;19;20121;-67
2023/10/21 03:48:53;;;;;;;80.75;36.72;;;9.80;99.90;;;;;;7380955;19;20018;-66
2023/10/21 03:51:20;;;;;;;123.05;42.67;;;9.70;99.90;;;;;;7377410;19;20022;-61
2023/10/21 03:53:46;;;;;;;134.77;42.70;;;9.70;99.90;;;;;;7379134;19;20023;-62
2023/10/21 03:56:12;;;;;;;70.65;33.33;;;9.70;99.90;;;;;;7376695;19;20310;-62
2023/10/21 03:58:39;;;;;;;137.95;41.65;;;9.70;99.90;;;;;;7380939;19;20037;-61
2023/10/21 04:01:06;;;;;;;92.93;34.50;;;9.70;99.90;;;;;;7378424;19;20098;-61
2023/10/21 04:03:33;;;;;;;123.07;39.97;;;9.70;99.90;;;;;;7378745;19;20026;-60
2023/10/21 04:06:00;;;;;;;99.70;35.67;;;9.80;99.90;;;;;;7374875;19;20019;-62
2023/10/21 04:08:28;;;;;;;86.50;34.72;;;9.80;99.90;;;;;;7380166;19;20018;-61
2023/10/21 04:10:54;;;;;;;64.03;29.63;;;9.80;99.90;;;;;;7379748;19;20040;-62
2023/10/21 04:13:21;;;;;;;91.65;34.00;;;9.80;99.90;;;;;;7375612;19;20018;-67
2023/10/21 04:15:49;;;;;;;114.85;37.05;;;9.80;99.90;;;;;;7376529;19;20466;-67
2023/10/21 04:18:16;;;;;;;85.30;33.83;;;9.90;99.90;;;;;;7378136;19;20094;-66
2023/10/21 04:20:42;;;;;;;72.85;32.33;;;9.90;99.90;;;;;;7373567;19;20046;-67
2023/10/21 04:23:08;;;;;;;94.40;35.20;;;9.90;99.90;;;;;;7375819;19;20495;-66
2023/10/21 04:25:35;;;;;;;66.22;29.35;;;9.90;99.90;;;;;;7370929;19;20098;-66
2023/10/21 04:28:01;;;;;;;100.70;34.40;;;9.90;99.90;;;;;;7374174;19;20029;-61
2023/10/21 04:30:28;;;;;;;110.60;35.75;;;9.90;99.90;;;;;;7377288;19;20022;-64
2023/10/21 04:32:55;;;;;;;71.50;31.13;;;9.90;99.90;;;;;;7374503;19;20335;-62
2023/10/21 04:35:21;;;;;;;96.53;35.90;;;9.90;99.90;;;;;;7379547;19;20038;-62
2023/10/21 04:37:48;;;;;;;98.88;34.35;;;9.80;99.90;;;;;;7377995;19;20019;-66
2023/10/21 04:40:14;;;;;;;82.32;33.33;;;9.90;99.90;;;;;;7377936;19;20022;-61
2023/10/21 04:42:41;;;;;;;87.78;33.38;;;9.90;99.90;;;;;;7376046;19;20018;-61
2023/10/21 04:45:09;;;;;;;93.05;33.95;;;9.80;99.90;;;;;;7379503;19;20568;-66
2023/10/21 04:47:35;;;;;;;68.75;30.98;;;10.00;99.90;;;;;;7376074;19;20030;-61
2023/10/21 04:50:04;;;;;;;80.55;34.10;;;9.90;99.90;;;;;;7378528;19;20114;-62
2023/10/21 04:52:31;;;;;;;68.43;30.50;;;9.90;99.90;;;;;;7375677;19;20026;-67
2023/10/21 04:54:57;;;;;;;99.50;34.90;;;9.90;99.90;;;;;;7375633;19;20560;-67
2023/10/21 04:57:23;;;;;;;100.13;35.60;;;10.00;99.90;;;;;;7375061;19;20047;-66
2023/10/21 04:59:50;;;;;;;113.95;36.33;;;9.90;99.90;;;;;;7373966;19;20026;-66
2023/10/21 05:02:16;;;;;;;68.00;28.45;;;9.90;99.90;;;;;;7375737;19;20671;-66
2023/10/21 05:04:42;;;;;;;80.97;32.35;;;9.90;99.90;;;;;;7372273;19;20019;-66
2023/10/21 05:07:08;;;;;;;75.65;32.35;;;10.00;99.90;;;;;;7375971;19;20019;-67
2023/10/21 05:09:35;;;;;;;86.43;33.38;;;10.10;99.90;;;;;;7372678;19;20022;-62
2023/10/21 05:12:01;;;;;;;80.18;30.67;;;10.00;99.90;;;;;;7379393;19;20018;-62
2023/10/21 05:14:27;;;;;;;72.45;29.63;;;10.10;99.90;;;;;;7371908;19;20439;-66
2023/10/21 05:16:53;;;;;;;71.57;30.92;;;10.00;99.90;;;;;;7373582;19;20023;-62
2023/10/21 05:19:20;;;;;;;75.05;31.67;;;10.10;99.90;;;;;;7375289;19;20777;-60
2023/10/21 05:21:46;;;;;;;75.68;32.60;;;10.10;99.90;;;;;;7376886;19;20172;-62
2023/10/21 05:24:12;;;;;;;77.15;32.38;;;10.10;99.90;;;;;;7373094;19;20014;-59
2023/10/21 05:26:38;;;;;;;74.40;32.67;;;10.10;99.90;;;;;;7376078;19;20011;-62
2023/10/21 05:29:06;;;;;;;78.20;31.75;;;10.10;99.90;;;;;;7374974;19;20022;-61
2023/10/21 05:31:32;;;;;;;90.13;33.55;;;10.20;99.90;;;;;;7372180;19;20039;-61
2023/10/21 05:33:59;;;;;;;72.05;32.10;;;10.20;99.90;;;;;;7371154;19;20042;-61
2023/10/21 05:36:26;;;;;;;68.57;30.65;;;10.20;99.90;;;;;;7377226;19;20102;-62
2023/10/21 05:38:53;;;;;;;93.30;33.85;;;10.20;99.90;;;;;;7376179;19;20127;-62
2023/10/21 05:41:20;;;;;;;85.93;32.55;;;10.20;99.90;;;;;;7377099;19;20022;-62
2023/10/21 05:43:47;;;;;;;76.82;30.70;;;10.30;99.90;;;;;;7373540;19;20639;-63
2023/10/21 05:46:13;;;;;;;123.38;100.72;;;10.10;99.90;;;;;;7373287;19;20018;-61
2023/10/21 05:48:39;;;;;;;380.42;339.83;;;10.20;99.90;;;;;;7378073;19;20430;-60
2023/10/21 05:51:06;;;;;;;90.15;69.38;;;10.30;99.90;;;;;;7376789;19;20018;-61
2023/10/21 05:53:33;;;;;;;119.72;94.22;;;10.20;99.90;;;;;;7375621;19;20007;-62
2023/10/21 05:55:59;;;;;;;184.80;160.48;;;10.20;99.90;;;;;;7380068;19;20031;-61
2023/10/21 05:58:26;;;;;;;93.18;49.13;;;10.30;99.90;;;;;;7382619;19;20026;-61
2023/10/21 06:00:53;;;;;;;95.97;54.00;;;10.30;99.90;;;;;;7381440;19;20018;-61
2023/10/21 06:03:19;;;;;;;144.85;119.82;;;10.30;99.90;;;;;;7382344;19;20042;-62
2023/10/21 06:05:46;;;;;;;67.15;33.97;;;10.20;99.90;;;;;;7381676;19;20010;-62
2023/10/21 06:08:12;;;;;;;64.68;37.60;;;10.20;99.90;;;;;;7377678;19;20691;-62
2023/10/21 06:10:39;;;;;;;83.03;37.05;;;10.30;99.90;;;;;;7380880;19;20018;-62
2023/10/21 06:13:06;;;;;;;107.90;81.63;;;10.40;99.90;;;;;;7382635;19;21215;-62
2023/10/21 06:15:32;;;;;;;78.55;38.90;;;10.30;99.90;;;;;;7383770;19;20351;-62
2023/10/21 06:17:59;;;;;;;112.05;56.85;;;10.40;99.90;;;;;;7375450;19;20425;-58
2023/10/21 06:20:26;;;;;;;246.32;193.75;;;10.30;99.90;;;;;;7384608;19;20018;-61
2023/10/21 06:22:52;;;;;;;172.07;144.48;;;10.30;99.90;;;;;;7379685;19;20022;-61
2023/10/21 06:25:18;;;;;;;113.38;69.55;;;10.30;99.90;;;;;;7374717;19;20085;-63
2023/10/21 06:27:47;;;;;;;70.60;40.33;;;10.30;99.90;;;;;;7370824;19;20089;-61
2023/10/21 06:30:14;;;;;;;164.95;133.00;;;10.40;99.90;;;;;;7374963;19;20098;-62
2023/10/21 06:32:41;;;;;;;58.05;33.15;;;10.50;99.90;;;;;;7366504;19;20018;-62
2023/10/21 06:35:07;;;;;;;60.63;31.00;;;10.40;99.90;;;;;;7373393;19;20026;-62
2023/10/21 06:37:34;;;;;;;51.22;30.70;;;10.40;99.90;;;;;;7373848;19;20649;-62
2023/10/21 06:40:01;;;;;;;61.67;29.35;;;10.50;99.90;;;;;;7372528;19;20021;-63
2023/10/21 06:42:27;;;;;;;245.50;184.55;;;10.40;99.90;;;;;;7372682;19;20014;-62
2023/10/21 06:44:53;;;;;;;108.55;65.57;;;10.50;99.90;;;;;;7368325;19;20019;-62
2023/10/21 06:47:20;;;;;;;82.93;46.90;;;10.50;99.90;;;;;;7371756;19;20026;-61
2023/10/21 06:49:46;;;;;;;132.75;101.28;;;10.60;99.90;;;;;;7367824;19;20078;-62
2023/10/21 06:52:15;;;;;;;160.93;120.82;;;10.70;99.90;;;;;;7373828;19;20018;-62
2023/10/21 06:54:41;;;;;;;86.90;58.85;;;10.70;99.90;;;;;;7372001;19;20014;-62
2023/10/21 06:57:07;;;;;;;45.88;27.60;;;10.80;99.90;;;;;;7373428;19;20022;-61
2023/10/21 06:59:33;;;;;;;74.65;34.03;;;10.70;99.90;;;;;;7378454;19;20029;-62
2023/10/21 07:02:00;;;;;;;65.30;32.13;;;10.70;99.90;;;;;;7376456;19;20022;-64
2023/10/21 07:04:27;;;;;;;66.78;36.38;;;10.80;99.90;;;;;;7378063;19;20057;-65
2023/10/21 07:06:53;;;;;;;71.13;30.45;;;10.80;99.90;;;;;;7380286;19;20096;-60
2023/10/21 07:09:21;;;;;;;57.97;29.83;;;10.90;99.90;;;;;;7383585;19;20094;-65
2023/10/21 07:11:47;;;;;;;66.72;46.65;;;11.00;99.90;;;;;;7378102;19;20057;-64
2023/10/21 07:14:13;;;;;;;64.63;35.60;;;11.00;99.90;;;;;;7377519;19;20018;-65
2023/10/21 07:16:40;;;;;;;52.97;28.33;;;11.10;99.90;;;;;;7376272;19;20030;-64
2023/10/21 07:19:06;;;;;;;50.88;32.47;;;11.20;99.90;;;;;;7376271;19;20039;-64
2023/10/21 07:21:32;;;;;;;37.13;23.25;;;11.30;99.90;;;;;;7379953;19;20028;-64
2023/10/21 07:23:58;;;;;;;48.50;35.42;;;11.40;99.90;;;;;;7377425;19;20018;-62
2023/10/21 07:26:25;;;;;;;63.35;45.63;;;11.40;99.90;;;;;;7378215;19;20046;-65
2023/10/21 07:28:51;;;;;;;76.78;56.10;;;11.50;99.90;;;;;;7386503;19;20033;-64
2023/10/21 07:31:17;;;;;;;41.42;29.42;;;11.70;99.90;;;;;;7387259;19;20054;-64
2023/10/21 07:33:44;;;;;;;42.63;24.98;;;11.80;99.90;;;;;;7380953;19;20030;-65
2023/10/21 07:36:10;;;;;;;69.18;49.30;;;11.80;99.90;;;;;;7385026;19;20082;-61
2023/10/21 07:38:36;;;;;;;64.28;46.13;;;12.00;99.90;;;;;;7380881;19;20026;-61
2023/10/21 07:41:12;;;;;;;50.67;27.13;;;12.10;99.90;;;;;;7379547;19;20040;-59
2023/10/21 07:43:40;;;;;;;48.10;34.05;;;12.20;99.90;;;;;;7378207;19;20395;-60
2023/10/21 07:46:06;;;;;;;53.05;29.05;;;12.30;99.90;;;;;;7379390;19;20038;-60
2023/10/21 07:48:32;;;;;;;41.45;24.98;;;12.50;99.90;;;;;;7380416;19;20030;-59
2023/10/21 07:50:58;;;;;;;63.15;41.70;;;12.90;99.90;;;;;;7379234;19;20015;-60
2023/10/21 07:53:25;;;;;;;39.70;28.00;;;13.10;99.90;;;;;;7379613;19;20040;-64
2023/10/21 07:55:53;;;;;;;38.30;24.27;;;13.10;99.90;;;;;;7378701;19;20025;-64
2023/10/21 07:58:19;;;;;;;37.60;24.92;;;13.60;99.90;;;;;;7381896;19;20026;-68
2023/10/21 08:00:45;;;;;;;39.67;27.60;;;14.10;99.90;;;;;;7386624;19;20019;-64
2023/10/21 08:03:12;;;;;;;34.67;21.63;;;14.40;99.90;;;;;;7387899;19;20029;-64
2023/10/21 08:05:38;;;;;;;29.45;20.13;;;14.50;99.90;;;;;;7381438;19;20025;-65
2023/10/21 08:08:05;;;;;;;27.10;18.90;;;14.80;99.90;;;;;;7373222;19;20026;-67
2023/10/21 08:10:31;;;;;;;21.80;16.83;;;14.80;99.90;;;;;;7375647;19;20022;-65
2023/10/21 08:12:57;;;;;;;21.33;15.50;;;14.90;99.90;;;;;;7375551;19;20022;-65
2023/10/21 08:15:24;;;;;;;21.90;16.00;;;14.80;99.90;;;;;;7375532;19;20039;-65
2023/10/21 08:17:53;;;;;;;17.95;13.32;;;14.80;99.90;;;;;;7377062;19;20014;-67
2023/10/21 08:20:20;;;;;;;17.02;12.75;;;15.10;99.90;;;;;;7376813;19;20021;-67
2023/10/21 08:22:46;;;;;;;15.50;11.82;;;15.70;99.90;;;;;;7377130;19;20488;-67
2023/10/21 08:25:13;;;;;;;14.15;9.90;;;16.30;99.90;;;;;;7376314;19;20127;-67
2023/10/21 08:27:39;;;;;;;10.77;9.70;;;16.50;99.90;;;;;;7381029;19;20026;-64
2023/10/21 08:30:09;;;;;;;11.27;8.10;;;17.00;99.90;;;;;;7378494;19;20048;-65
2023/10/21 08:32:37;;;;;;;10.45;8.27;;;17.70;99.90;;;;;;7375699;19;20023;-68
2023/10/21 08:35:03;;;;;;;11.27;5.88;;;18.10;99.90;;;;;;7370723;19;20172;-67
2023/10/21 08:37:31;;;;;;;9.75;5.50;;;18.40;99.90;;;;;;7377008;19;20434;-68
2023/10/21 08:39:57;;;;;;;12.18;5.57;;;19.00;99.90;;;;;;7375951;19;20019;-65
2023/10/21 08:42:31;;;;;;;8.10;5.10;;;19.40;99.90;;;;;;7377568;19;20434;-64
2023/10/21 08:45:01;;;;;;;12.35;8.57;;;19.80;99.90;;;;;;7372367;19;20519;-68
2023/10/21 08:47:28;;;;;;;6.90;4.00;;;20.20;99.90;;;;;;7378732;19;20014;-65
2023/10/21 08:49:56;;;;;;;15.52;7.97;;;20.20;99.90;;;;;;7378139;19;20485;-66
2023/10/21 08:52:24;;;;;;;9.23;4.75;;;20.30;99.90;;;;;;7379537;19;20022;-64
2023/10/21 08:54:51;;;;;;;7.25;4.40;;;20.30;99.90;;;;;;7375969;19;20018;-64
2023/10/21 08:57:17;;;;;;;7.38;4.43;;;20.60;99.90;;;;;;7376671;19;20014;-64
2023/10/21 08:59:43;;;;;;;6.93;3.70;;;20.60;99.90;;;;;;7377069;19;20014;-63
2023/10/21 09:02:09;;;;;;;19.13;16.67;;;20.40;99.90;;;;;;7375049;19;20018;-64
2023/10/21 09:04:36;;;;;;;8.57;4.55;;;19.70;99.90;;;;;;7375606;19;20022;-64
2023/10/21 09:07:04;;;;;;;13.60;10.00;;;19.10;99.90;;;;;;7375398;19;20965;-64
2023/10/21 09:09:30;;;;;;;10.20;3.92;;;18.60;99.90;;;;;;7377521;19;20884;-68
2023/10/21 09:12:03;;;;;;;11.50;4.63;;;18.10;99.90;;;;;;7376427;19;20627;-64
2023/10/21 09:14:29;;;;;;;8.48;4.25;;;17.60;99.90;;;;;;7372234;19;20049;-64
2023/10/21 09:16:56;;;;;;;8.45;4.70;;;17.20;99.90;;;;;;7372727;19;20026;-68
2023/10/21 09:19:28;;;;;;;8.93;3.88;;;16.80;99.90;;;;;;7377060;19;20055;-68
2023/10/21 09:21:55;;;;;;;9.77;4.47;;;16.60;99.90;;;;;;7369352;19;20018;-68
2023/10/21 09:24:22;;;;;;;8.80;4.68;;;16.40;99.90;;;;;;7375438;19;20078;-64
2023/10/21 09:26:50;;;;;;;9.52;5.32;;;16.20;99.90;;;;;;7371421;19;20018;-64
2023/10/21 09:29:22;;;;;;;8.57;4.47;;;16.10;99.90;;;;;;7375178;19;20045;-63
2023/10/21 09:31:52;;;;;;;7.95;4.63;;;16.00;99.90;;;;;;7372063;19;20680;-63
2023/10/21 09:34:29;;;;;;;9.15;4.95;;;15.80;99.90;;;;;;7373311;19;20019;-64
2023/10/21 09:36:57;;;;;;;7.60;4.80;;;15.60;99.90;;;;;;7374322;19;20036;-63
2023/10/21 09:39:24;;;;;;;8.52;6.30;;;15.60;99.90;;;;;;7374642;19;20041;-64
2023/10/21 09:42:05;;;;;;;5.82;3.80;;;15.40;99.90;;;;;;7408108;19;21043;-68
2023/10/21 09:44:38;;;;;;;7.85;4.95;;;15.40;99.90;;;;;;7408089;19;20028;-67
2023/10/21 09:47:04;;;;;;;;;;;15.30;99.90;;;;;;7408461;19;20011;-70
2023/10/21 09:49:39;;;;;;;8.68;3.90;;;15.20;99.90;;;;;;7409800;19;19929;-69
2023/10/21 09:52:14;;;;;;;7.93;4.07;;;15.10;99.90;;;;;;7411176;19;20097;-64
2023/10/21 09:54:50;;;;;;;6.70;5.15;;;15.10;99.90;;;;;;7407536;19;20018;-65
2023/10/21 09:57:19;;;;;;;7.78;4.50;;;15.10;99.90;;;;;;7410819;19;20035;-65
2023/10/21 09:59:47;;;;;;;9.15;5.20;;;15.00;99.90;;;;;;7406818;19;20481;-65
2023/10/21 10:02:14;;;;;;;6.80;3.33;;;14.90;99.90;;;;;;7413910;19;20022;-67
2023/10/21 10:04:40;;;;;;;6.82;3.05;;;14.90;99.90;;;;;;7404547;19;20030;-68
2023/10/21 10:07:07;;;;;;;6.03;3.58;;;14.80;99.90;;;;;;7410737;19;20071;-66
2023/10/21 10:09:36;;;;;;;5.65;3.50;;;14.80;99.90;;;;;;7408877;19;20059;-67
2023/10/21 10:12:34;;;;;;;6.30;4.70;;;14.80;99.90;;;;;;7407858;19;20030;-67
2023/10/21 10:15:39;;;;;;;2.25;1.80;;;14.80;99.90;;;;;;7405104;19;20057;-66
2023/10/21 10:18:13;;;;;;;4.07;2.00;;;14.70;99.90;;;;;;7406526;19;20453;-67
2023/10/21 10:20:51;;;;;;;5.80;3.75;;;14.70;99.90;;;;;;7402901;19;20797;-66
2023/10/21 10:23:24;;;;;;;3.88;1.88;;;14.60;99.90;;;;;;7403954;19;20445;-67
2023/10/21 10:25:54;;;;;;;4.00;1.20;;;14.70;99.90;;;;;;7404272;19;20020;-67
2023/10/21 10:28:25;;;;;;;3.53;1.10;;;14.90;99.90;;;;;;7405741;19;20057;-67
2023/10/21 10:30:53;;;;;;;1.88;1.05;;;15.10;99.90;;;;;;7407656;19;20014;-65
2023/10/21 10:33:25;;;;;;;5.80;3.80;;;15.10;99.90;;;;;;7401484;19;20014;-65
2023/10/21 10:35:53;;;;;;;2.42;1.35;;;15.20;99.90;;;;;;7407206;19;20490;-66
2023/10/21 10:38:27;;;;;;;2.60;0.80;;;15.20;99.90;;;;;;7408439;19;20042;-67
2023/10/21 10:41:11;;;;;;;2.05;1.10;;;15.10;99.90;;;;;;7404795;19;20014;-68
2023/10/21 10:43:49;;;;;;;5.50;1.20;;;15.40;99.90;;;;;;7404231;19;20101;-65
2023/10/21 10:46:17;;;;;;;3.38;0.98;;;15.70;99.90;;;;;;7407206;19;20421;-68
2023/10/21 10:48:46;;;;;;;2.30;0.82;;;15.80;99.90;;;;;;7403524;19;20022;-68
2023/10/21 10:51:19;;;;;;;3.35;1.10;;;15.70;99.90;;;;;;7406153;19;20053;-69
2023/10/21 10:53:46;;;;;;;2.67;1.10;;;15.80;99.90;;;;;;7373821;19;20761;-69
2023/10/21 10:56:19;;;;;;;3.53;1.67;;;15.60;99.90;;;;;;7374471;19;20089;-68
2023/10/21 10:58:46;;;;;;;2.63;1.17;;;15.50;99.90;;;;;;7374608;19;20019;-69
2023/10/21 11:01:25;;;;;;;6.68;1.48;;;15.30;99.90;;;;;;7374480;19;20014;-65
2023/10/21 11:03:56;;;;;;;2.80;1.02;;;15.30;99.90;;;;;;7373970;19;20010;-68
2023/10/21 11:06:24;;;;;;;4.40;3.10;;;15.30;99.90;;;;;;7379571;19;20018;-65
2023/10/21 11:08:52;;;;;;;4.90;1.42;;;15.30;99.90;;;;;;7371737;19;20102;-65
2023/10/21 11:11:21;;;;;;;2.00;1.05;;;15.30;99.90;;;;;;7376279;19;20021;-65
2023/10/21 11:13:47;;;;;;;1.17;0.82;;;15.30;99.90;;;;;;7375078;19;20022;-65
2023/10/21 11:16:15;;;;;;;1.52;0.68;;;15.40;99.90;;;;;;7374822;19;20938;-65
2023/10/21 11:18:42;;;;;;;2.75;0.90;;;15.40;99.90;;;;;;7371461;19;20022;-65
2023/10/21 11:21:08;;;;;;;2.25;0.65;;;15.40;99.90;;;;;;7373771;19;20110;-69
2023/10/21 11:23:39;;;;;;;2.60;0.80;;;15.40;99.90;;;;;;7373865;19;20050;-69
2023/10/21 11:26:09;;;;;;;2.38;0.80;;;15.20;99.90;;;;;;7375286;19;20421;-67
2023/10/21 11:28:37;;;;;;;4.45;2.40;;;15.20;99.90;;;;;;7371459;19;20798;-68
2023/10/21 11:31:04;;;;;;;3.40;1.27;;;15.10;99.90;;;;;;7372686;19;20018;-68
2023/10/21 11:33:31;;;;;;;3.10;1.05;;;15.00;99.90;;;;;;7374324;19;20453;-69
2023/10/21 11:36:02;;;;;;;2.53;0.77;;;14.90;99.90;;;;;;7376981;19;20029;-65
2023/10/21 11:38:28;;;;;;;6.93;2.85;;;14.80;99.90;;;;;;7376306;19;20023;-66
2023/10/21 11:40:55;;;;;;;3.85;1.67;;;14.80;99.90;;;;;;7374117;19;20010;-65
2023/10/21 11:43:25;;;;;;;1.92;0.70;;;14.80;99.90;;;;;;7374473;19;20022;-65
2023/10/21 11:45:54;;;;;;;2.95;0.93;;;14.70;99.90;;;;;;7372824;19;20029;-67
2023/10/21 11:48:21;;;;;;;6.63;0.88;;;14.60;99.90;;;;;;7374046;19;20094;-66
2023/10/21 11:50:48;;;;;;;3.00;0.98;;;14.60;99.90;;;;;;7374244;19;20028;-69
2023/10/21 11:53:14;;;;;;;3.80;1.20;;;14.70;99.90;;;;;;7372338;19;20527;-69
2023/10/21 12:25:01;;;;;;;2.00;0.98;;;16.90;99.90;;;;;;7373876;19;20020;-65
2023/10/21 12:40:37;;;;;;;2.08;0.82;;;16.60;99.90;;;;;;7373591;19;20018;-70
2023/10/21 12:45:48;;;;;;;3.90;0.95;;;16.10;99.90;;;;;;7374510;19;20857;-65
2023/10/21 12:48:19;;;;;;;18.73;12.77;;;16.30;99.90;;;;;;7378383;19;20025;-58
2023/10/21 12:50:50;;;;;;;22.20;17.58;;;17.30;99.90;;;;;;7377544;19;20107;-64
2023/10/21 12:53:17;;;;;;;24.90;20.67;;;17.60;99.90;;;;;;7380932;19;20916;-67
2023/10/21 12:55:44;;;;;;;37.33;30.50;;;17.70;99.90;;;;;;7374924;19;20018;-64
2023/10/21 12:58:10;;;;;;;25.10;20.92;;;18.10;99.90;;;;;;7372462;19;20022;-59
2023/10/21 13:00:37;;;;;;;60.47;54.08;;;18.00;99.90;;;;;;7373175;19;20014;-60
2023/10/21 13:03:10;;;;;;;14.35;10.18;;;18.30;99.90;;;;;;7373821;19;20051;-68
2023/10/21 13:05:37;;;;;;;12.73;11.30;;;18.00;99.90;;;;;;7376167;19;20093;-63
2023/10/21 13:08:08;;;;;;;3.53;1.88;;;18.00;99.90;;;;;;7367933;19;20490;-67
2023/10/21 13:10:38;;;;;;;18.55;14.73;;;17.80;99.90;;;;;;7377212;19;20018;-62
2023/10/21 13:13:06;;;;;;;20.67;16.88;;;17.60;99.90;;;;;;7372797;19;20049;-62
2023/10/21 13:15:32;;;;;;;16.75;12.68;;;17.90;99.90;;;;;;7371898;19;20022;-68
2023/10/21 13:18:03;;;;;;;13.80;10.00;;;17.60;99.90;;;;;;7373228;19;20022;-68
2023/10/21 13:20:30;;;;;;;31.85;27.92;;;17.60;99.90;;;;;;7372140;19;20542;-63